Farmington, Washington
Current Conditions -  °F | °C
As of 7:53 AM on Sunday 23 Nov 2014 (Local Time) from KPUW Reporting Station
Overcast Overcast  
Wind Chill:   Ceiling: 2400
Heat Index:   Visibility: 10mi
Dew Point:   Wind: 13mph
Humidity: 76%   Direction: 210°SSW
Pressure: 30.16"   Gusts: NA
Location:  47.09°N, 117.04°W
Report Text: KPUW 231553Z AUTO 21011KT 10SM OVC024 04/00 A3016 RMK AO2 SLP230 T00390000
Loading
Personal Weather Stations






























Interactive Weather Map New forecast layout! Learn more

10-Day Weather Forecast

Advertisements
Track Severe Weather on mobile